sensor_id;sensor_type;location;lat;lon;timestamp;pressure;altitude;pressure_sealevel;temperature
74536;BMP180;63013;51.104;-115.370;2022-12-18T00:01:35;86942.80;;;21.50
74536;BMP180;63013;51.104;-115.370;2022-12-18T00:04:20;86940.60;;;21.50
74536;BMP180;63013;51.104;-115.370;2022-12-18T00:06:49;86943.00;;;21.50
74536;BMP180;63013;51.104;-115.370;2022-12-18T00:09:17;86942.40;;;21.50
74536;BMP180;63013;51.104;-115.370;2022-12-18T00:11:44;86949.60;;;21.50
74536;BMP180;63013;51.104;-115.370;2022-12-18T00:14:13;86954.80;;;21.50
74536;BMP180;63013;51.104;-115.370;2022-12-18T00:16:44;86947.40;;;21.50
74536;BMP180;63013;51.104;-115.370;2022-12-18T00:19:13;86944.40;;;21.40
74536;BMP180;63013;51.104;-115.370;2022-12-18T00:21:42;86948.40;;;21.40
74536;BMP180;63013;51.104;-115.370;2022-12-18T00:24:11;86952.80;;;21.40
74536;BMP180;63013;51.104;-115.370;2022-12-18T00:26:39;86959.40;;;21.40
74536;BMP180;63013;51.104;-115.370;2022-12-18T00:29:14;86951.80;;;21.40
74536;BMP180;63013;51.104;-115.370;2022-12-18T00:31:42;86954.20;;;21.42
74536;BMP180;63013;51.104;-115.370;2022-12-18T00:34:13;86954.00;;;21.50
74536;BMP180;63013;51.104;-115.370;2022-12-18T00:36:41;86954.60;;;21.50
74536;BMP180;63013;51.104;-115.370;2022-12-18T00:39:10;86956.20;;;21.50
74536;BMP180;63013;51.104;-115.370;2022-12-18T00:41:39;86960.60;;;21.50
74536;BMP180;63013;51.104;-115.370;2022-12-18T00:44:24;86963.40;;;21.50
74536;BMP180;63013;51.104;-115.370;2022-12-18T00:46:52;86960.00;;;21.50
74536;BMP180;63013;51.104;-115.370;2022-12-18T00:49:20;86963.00;;;21.50
74536;BMP180;63013;51.104;-115.370;2022-12-18T00:51:48;86963.40;;;21.42
74536;BMP180;63013;51.104;-115.370;2022-12-18T00:54:17;86967.20;;;21.40
74536;BMP180;63013;51.104;-115.370;2022-12-18T00:56:44;86970.20;;;21.40
74536;BMP180;63013;51.104;-115.370;2022-12-18T00:59:11;86967.40;;;21.40
74536;BMP180;63013;51.104;-115.370;2022-12-18T01:01:39;86961.80;;;21.40
74536;BMP180;63013;51.104;-115.370;2022-12-18T01:04:06;86964.60;;;21.42
74536;BMP180;63013;51.104;-115.370;2022-12-18T01:06:33;86954.20;;;21.48
74536;BMP180;63013;51.104;-115.370;2022-12-18T01:09:01;86955.20;;;21.50
74536;BMP180;63013;51.104;-115.370;2022-12-18T01:11:28;86960.80;;;21.50
74536;BMP180;63013;51.104;-115.370;2022-12-18T01:13:56;86964.00;;;21.50
74536;BMP180;63013;51.104;-115.370;2022-12-18T01:16:23;86956.80;;;21.50
74536;BMP180;63013;51.104;-115.370;2022-12-18T01:18:54;86961.60;;;21.50
74536;BMP180;63013;51.104;-115.370;2022-12-18T01:21:23;86959.80;;;21.50
74536;BMP180;63013;51.104;-115.370;2022-12-18T01:23:56;86955.60;;;21.50
74536;BMP180;63013;51.104;-115.370;2022-12-18T01:26:25;86957.40;;;21.44
74536;BMP180;63013;51.104;-115.370;2022-12-18T01:28:56;86968.40;;;21.40
74536;BMP180;63013;51.104;-115.370;2022-12-18T01:31:28;86968.20;;;21.40
74536;BMP180;63013;51.104;-115.370;2022-12-18T01:33:57;86967.80;;;21.40
74536;BMP180;63013;51.104;-115.370;2022-12-18T01:36:30;86961.80;;;21.40
74536;BMP180;63013;51.104;-115.370;2022-12-18T01:39:02;86971.60;;;21.42
74536;BMP180;63013;51.104;-115.370;2022-12-18T01:41:32;86969.20;;;21.50
74536;BMP180;63013;51.104;-115.370;2022-12-18T01:44:53;86965.00;;;21.50
74536;BMP180;63013;51.104;-115.370;2022-12-18T01:50:43;86966.20;;;21.60
74536;BMP180;63013;51.104;-115.370;2022-12-18T01:53:22;86975.80;;;21.60
74536;BMP180;63013;51.104;-115.370;2022-12-18T01:55:53;86976.40;;;21.60
74536;BMP180;63013;51.104;-115.370;2022-12-18T02:01:04;86971.80;;;21.58
74536;BMP180;63013;51.104;-115.370;2022-12-18T02:03:31;86977.20;;;21.50
74536;BMP180;63013;51.104;-115.370;2022-12-18T02:09:08;86983.20;;;21.50
74536;BMP180;63013;51.104;-115.370;2022-12-18T02:14:35;86988.40;;;21.50
74536;BMP180;63013;51.104;-115.370;2022-12-18T02:17:18;86994.00;;;21.50
74536;BMP180;63013;51.104;-115.370;2022-12-18T02:20:40;86996.00;;;21.50
74536;BMP180;63013;51.104;-115.370;2022-12-18T02:23:52;86987.20;;;21.50
74536;BMP180;63013;51.104;-115.370;2022-12-18T02:26:37;86995.00;;;21.50
74536;BMP180;63013;51.104;-115.370;2022-12-18T02:30:09;86994.00;;;21.50
74536;BMP180;63013;51.104;-115.370;2022-12-18T02:32:35;86995.00;;;21.50
74536;BMP180;63013;51.104;-115.370;2022-12-18T02:35:08;86997.00;;;21.44
74536;BMP180;63013;51.104;-115.370;2022-12-18T02:37:39;86993.80;;;21.40
74536;BMP180;63013;51.104;-115.370;2022-12-18T02:40:14;86995.00;;;21.40
74536;BMP180;63013;51.104;-115.370;2022-12-18T02:42:42;86998.00;;;21.40
74536;BMP180;63013;51.104;-115.370;2022-12-18T02:45:10;86998.00;;;21.40
74536;BMP180;63013;51.104;-115.370;2022-12-18T02:47:42;86999.00;;;21.40
74536;BMP180;63013;51.104;-115.370;2022-12-18T02:50:36;87001.20;;;21.40
74536;BMP180;63013;51.104;-115.370;2022-12-18T02:53:35;86995.00;;;21.40
74536;BMP180;63013;51.104;-115.370;2022-12-18T02:56:17;86996.00;;;21.40
74536;BMP180;63013;51.104;-115.370;2022-12-18T02:59:13;87002.00;;;21.40
74536;BMP180;63013;51.104;-115.370;2022-12-18T03:01:59;87002.40;;;21.40
74536;BMP180;63013;51.104;-115.370;2022-12-18T03:04:47;87000.00;;;21.30
74536;BMP180;63013;51.104;-115.370;2022-12-18T03:07:26;86996.20;;;21.30
74536;BMP180;63013;51.104;-115.370;2022-12-18T03:09:55;87001.80;;;21.30
74536;BMP180;63013;51.104;-115.370;2022-12-18T03:12:50;87006.80;;;21.30
74536;BMP180;63013;51.104;-115.370;2022-12-18T03:15:33;87000.60;;;21.30
74536;BMP180;63013;51.104;-115.370;2022-12-18T03:18:10;87005.40;;;21.20
74536;BMP180;63013;51.104;-115.370;2022-12-18T03:20:42;87015.20;;;21.20
74536;BMP180;63013;51.104;-115.370;2022-12-18T03:23:17;87013.20;;;21.20
74536;BMP180;63013;51.104;-115.370;2022-12-18T03:25:47;87008.00;;;21.20
74536;BMP180;63013;51.104;-115.370;2022-12-18T03:28:22;87015.80;;;21.10
74536;BMP180;63013;51.104;-115.370;2022-12-18T03:30:56;87017.20;;;21.10
74536;BMP180;63013;51.104;-115.370;2022-12-18T03:33:38;87018.80;;;21.10
74536;BMP180;63013;51.104;-115.370;2022-12-18T03:36:07;87020.20;;;21.10
74536;BMP180;63013;51.104;-115.370;2022-12-18T03:38:34;87019.60;;;21.00
74536;BMP180;63013;51.104;-115.370;2022-12-18T03:41:19;87031.80;;;21.00
74536;BMP180;63013;51.104;-115.370;2022-12-18T03:52:12;87020.20;;;20.90
74536;BMP180;63013;51.104;-115.370;2022-12-18T03:54:43;87019.80;;;20.90
74536;BMP180;63013;51.104;-115.370;2022-12-18T03:57:21;87021.80;;;20.86
74536;BMP180;63013;51.104;-115.370;2022-12-18T03:59:56;87020.00;;;20.82
74536;BMP180;63013;51.104;-115.370;2022-12-18T04:02:24;87022.00;;;20.80
74536;BMP180;63013;51.104;-115.370;2022-12-18T04:04:59;87025.00;;;20.80
74536;BMP180;63013;51.104;-115.370;2022-12-18T04:07:27;87018.60;;;20.80
74536;BMP180;63013;51.104;-115.370;2022-12-18T04:09:58;87026.20;;;20.76
74536;BMP180;63013;51.104;-115.370;2022-12-18T04:12:30;87026.40;;;20.70
74536;BMP180;63013;51.104;-115.370;2022-12-18T04:14:57;87027.20;;;20.70
74536;BMP180;63013;51.104;-115.370;2022-12-18T04:17:24;87033.20;;;20.70
74536;BMP180;63013;51.104;-115.370;2022-12-18T04:19:52;87033.40;;;20.68
74536;BMP180;63013;51.104;-115.370;2022-12-18T04:22:19;87031.20;;;20.60
74536;BMP180;63013;51.104;-115.370;2022-12-18T04:24:46;87037.80;;;20.60
74536;BMP180;63013;51.104;-115.370;2022-12-18T04:27:13;87036.40;;;20.60
74536;BMP180;63013;51.104;-115.370;2022-12-18T04:29:41;87036.80;;;20.60
74536;BMP180;63013;51.104;-115.370;2022-12-18T04:32:09;87034.20;;;20.54
74536;BMP180;63013;51.104;-115.370;2022-12-18T04:34:36;87031.80;;;20.50
74536;BMP180;63013;51.104;-115.370;2022-12-18T04:37:03;87037.60;;;20.50
74536;BMP180;63013;51.104;-115.370;2022-12-18T04:39:30;87035.40;;;20.50
74536;BMP180;63013;51.104;-115.370;2022-12-18T04:41:58;87038.80;;;20.44
74536;BMP180;63013;51.104;-115.370;2022-12-18T04:44:25;87035.20;;;20.40
74536;BMP180;63013;51.104;-115.370;2022-12-18T04:46:52;87023.40;;;20.40
74536;BMP180;63013;51.104;-115.370;2022-12-18T04:49:20;87028.00;;;20.40
74536;BMP180;63013;51.104;-115.370;2022-12-18T04:51:47;87034.20;;;20.40
74536;BMP180;63013;51.104;-115.370;2022-12-18T04:54:14;87032.20;;;20.30
74536;BMP180;63013;51.104;-115.370;2022-12-18T04:56:41;87031.20;;;20.30
74536;BMP180;63013;51.104;-115.370;2022-12-18T04:59:09;87036.40;;;20.30
74536;BMP180;63013;51.104;-115.370;2022-12-18T05:01:36;87028.60;;;20.30
74536;BMP180;63013;51.104;-115.370;2022-12-18T05:04:03;87036.40;;;20.26
74536;BMP180;63013;51.104;-115.370;2022-12-18T05:06:31;87035.40;;;20.20
74536;BMP180;63013;51.104;-115.370;2022-12-18T05:08:58;87032.60;;;20.20
74536;BMP180;63013;51.104;-115.370;2022-12-18T05:11:25;87030.40;;;20.20
74536;BMP180;63013;51.104;-115.370;2022-12-18T05:13:53;87035.60;;;20.14
74536;BMP180;63013;51.104;-115.370;2022-12-18T05:16:20;87031.80;;;20.10
74536;BMP180;63013;51.104;-115.370;2022-12-18T05:18:47;87035.00;;;20.10
74536;BMP180;63013;51.104;-115.370;2022-12-18T05:21:14;87032.80;;;20.10
74536;BMP180;63013;51.104;-115.370;2022-12-18T05:23:41;87034.40;;;20.08
74536;BMP180;63013;51.104;-115.370;2022-12-18T05:26:09;87029.60;;;20.00
74536;BMP180;63013;51.104;-115.370;2022-12-18T05:28:40;87037.00;;;20.00
74536;BMP180;63013;51.104;-115.370;2022-12-18T05:31:08;87037.80;;;20.00
74536;BMP180;63013;51.104;-115.370;2022-12-18T05:33:35;87038.00;;;19.94
74536;BMP180;63013;51.104;-115.370;2022-12-18T05:36:06;87031.00;;;19.90
74536;BMP180;63013;51.104;-115.370;2022-12-18T05:38:36;87034.40;;;19.90
74536;BMP180;63013;51.104;-115.370;2022-12-18T05:41:04;87042.60;;;19.90
74536;BMP180;63013;51.104;-115.370;2022-12-18T05:43:33;87041.60;;;19.88
74536;BMP180;63013;51.104;-115.370;2022-12-18T05:46:05;87037.60;;;19.80
74536;BMP180;63013;51.104;-115.370;2022-12-18T05:48:33;87034.40;;;19.80
74536;BMP180;63013;51.104;-115.370;2022-12-18T05:51:11;87037.60;;;19.80
74536;BMP180;63013;51.104;-115.370;2022-12-18T05:53:38;87042.80;;;19.80
74536;BMP180;63013;51.104;-115.370;2022-12-18T05:56:13;87042.40;;;19.70
74536;BMP180;63013;51.104;-115.370;2022-12-18T05:58:41;87040.20;;;19.70
74536;BMP180;63013;51.104;-115.370;2022-12-18T06:01:13;87042.00;;;19.70
74536;BMP180;63013;51.104;-115.370;2022-12-18T06:03:40;87044.00;;;19.70
74536;BMP180;63013;51.104;-115.370;2022-12-18T06:06:26;87038.60;;;19.70
74536;BMP180;63013;51.104;-115.370;2022-12-18T06:08:55;87050.60;;;19.60
74536;BMP180;63013;51.104;-115.370;2022-12-18T06:11:25;87055.80;;;19.60
74536;BMP180;63013;51.104;-115.370;2022-12-18T06:13:56;87062.00;;;19.60
74536;BMP180;63013;51.104;-115.370;2022-12-18T06:16:24;87058.00;;;19.60
74536;BMP180;63013;51.104;-115.370;2022-12-18T06:18:51;87063.00;;;19.50
74536;BMP180;63013;51.104;-115.370;2022-12-18T06:21:18;87059.80;;;19.50
74536;BMP180;63013;51.104;-115.370;2022-12-18T06:23:46;87062.60;;;19.50
74536;BMP180;63013;51.104;-115.370;2022-12-18T06:26:14;87063.60;;;19.50
74536;BMP180;63013;51.104;-115.370;2022-12-18T06:28:42;87062.20;;;19.48
74536;BMP180;63013;51.104;-115.370;2022-12-18T06:31:10;87061.20;;;19.40
74536;BMP180;63013;51.104;-115.370;2022-12-18T06:33:38;87059.80;;;19.40
74536;BMP180;63013;51.104;-115.370;2022-12-18T06:36:12;87067.80;;;19.40
74536;BMP180;63013;51.104;-115.370;2022-12-18T06:38:42;87067.80;;;19.40
74536;BMP180;63013;51.104;-115.370;2022-12-18T06:41:18;87068.60;;;19.32
74536;BMP180;63013;51.104;-115.370;2022-12-18T06:43:46;87075.60;;;19.30
74536;BMP180;63013;51.104;-115.370;2022-12-18T06:46:14;87065.60;;;19.30
74536;BMP180;63013;51.104;-115.370;2022-12-18T06:48:41;87072.40;;;19.30
74536;BMP180;63013;51.104;-115.370;2022-12-18T06:51:08;87074.40;;;19.26
74536;BMP180;63013;51.104;-115.370;2022-12-18T06:53:36;87074.00;;;19.20
74536;BMP180;63013;51.104;-115.370;2022-12-18T06:56:05;87072.00;;;19.20
74536;BMP180;63013;51.104;-115.370;2022-12-18T06:58:33;87070.00;;;19.20
74536;BMP180;63013;51.104;-115.370;2022-12-18T07:01:03;87072.40;;;19.18
74536;BMP180;63013;51.104;-115.370;2022-12-18T07:03:31;87077.20;;;19.10
74536;BMP180;63013;51.104;-115.370;2022-12-18T07:05:58;87072.00;;;19.10
74536;BMP180;63013;51.104;-115.370;2022-12-18T07:08:25;87069.40;;;19.10
74536;BMP180;63013;51.104;-115.370;2022-12-18T07:10:53;87080.00;;;19.10
74536;BMP180;63013;51.104;-115.370;2022-12-18T07:13:20;87069.80;;;19.00
74536;BMP180;63013;51.104;-115.370;2022-12-18T07:15:48;87070.40;;;19.00
74536;BMP180;63013;51.104;-115.370;2022-12-18T07:18:15;87072.60;;;19.00
74536;BMP180;63013;51.104;-115.370;2022-12-18T07:20:42;87074.80;;;19.00
74536;BMP180;63013;51.104;-115.370;2022-12-18T07:23:10;87076.80;;;18.90
74536;BMP180;63013;51.104;-115.370;2022-12-18T07:25:38;87068.60;;;18.90
74536;BMP180;63013;51.104;-115.370;2022-12-18T07:28:06;87080.60;;;18.90
74536;BMP180;63013;51.104;-115.370;2022-12-18T07:30:33;87081.60;;;18.90
74536;BMP180;63013;51.104;-115.370;2022-12-18T07:33:00;87082.20;;;18.90
74536;BMP180;63013;51.104;-115.370;2022-12-18T07:35:27;87083.00;;;18.80
74536;BMP180;63013;51.104;-115.370;2022-12-18T07:37:54;87082.80;;;18.80
74536;BMP180;63013;51.104;-115.370;2022-12-18T07:40:21;87081.20;;;18.80
74536;BMP180;63013;51.104;-115.370;2022-12-18T07:42:49;87084.40;;;18.80
74536;BMP180;63013;51.104;-115.370;2022-12-18T07:45:16;87083.60;;;18.70
74536;BMP180;63013;51.104;-115.370;2022-12-18T07:47:43;87080.20;;;18.70
74536;BMP180;63013;51.104;-115.370;2022-12-18T07:50:11;87077.20;;;18.70
74536;BMP180;63013;51.104;-115.370;2022-12-18T07:52:39;87080.80;;;18.70
74536;BMP180;63013;51.104;-115.370;2022-12-18T07:55:07;87078.60;;;18.68
74536;BMP180;63013;51.104;-115.370;2022-12-18T07:57:34;87081.80;;;18.60
74536;BMP180;63013;51.104;-115.370;2022-12-18T08:00:02;87084.80;;;18.60
74536;BMP180;63013;51.104;-115.370;2022-12-18T08:02:31;87090.00;;;18.60
74536;BMP180;63013;51.104;-115.370;2022-12-18T08:04:58;87080.20;;;18.52
74536;BMP180;63013;51.104;-115.370;2022-12-18T08:07:26;87083.60;;;18.50
74536;BMP180;63013;51.104;-115.370;2022-12-18T08:09:53;87081.20;;;18.50
74536;BMP180;63013;51.104;-115.370;2022-12-18T08:12:20;87082.00;;;18.50
74536;BMP180;63013;51.104;-115.370;2022-12-18T08:14:47;87083.00;;;18.50
74536;BMP180;63013;51.104;-115.370;2022-12-18T08:17:15;87082.60;;;18.40
74536;BMP180;63013;51.104;-115.370;2022-12-18T08:19:42;87081.40;;;18.40
74536;BMP180;63013;51.104;-115.370;2022-12-18T08:22:09;87076.80;;;18.40
74536;BMP180;63013;51.104;-115.370;2022-12-18T08:24:36;87077.40;;;18.40
74536;BMP180;63013;51.104;-115.370;2022-12-18T08:27:03;87078.60;;;18.40
74536;BMP180;63013;51.104;-115.370;2022-12-18T08:29:30;87075.40;;;18.30
74536;BMP180;63013;51.104;-115.370;2022-12-18T08:31:58;87071.60;;;18.30
74536;BMP180;63013;51.104;-115.370;2022-12-18T08:34:25;87069.20;;;18.30
74536;BMP180;63013;51.104;-115.370;2022-12-18T08:36:53;87070.40;;;18.28
74536;BMP180;63013;51.104;-115.370;2022-12-18T08:39:20;87066.40;;;18.20
74536;BMP180;63013;51.104;-115.370;2022-12-18T08:41:47;87066.00;;;18.20
74536;BMP180;63013;51.104;-115.370;2022-12-18T08:44:34;87056.40;;;18.20
74536;BMP180;63013;51.104;-115.370;2022-12-18T08:47:05;87062.20;;;18.20
74536;BMP180;63013;51.104;-115.370;2022-12-18T08:49:34;87069.20;;;18.10
74536;BMP180;63013;51.104;-115.370;2022-12-18T08:52:01;87068.20;;;18.10
74536;BMP180;63013;51.104;-115.370;2022-12-18T08:54:29;87065.80;;;18.10
74536;BMP180;63013;51.104;-115.370;2022-12-18T08:56:57;87068.80;;;18.10
74536;BMP180;63013;51.104;-115.370;2022-12-18T08:59:24;87070.40;;;18.10
74536;BMP180;63013;51.104;-115.370;2022-12-18T09:01:53;87070.60;;;18.00
74536;BMP180;63013;51.104;-115.370;2022-12-18T09:04:22;87072.60;;;18.00
74536;BMP180;63013;51.104;-115.370;2022-12-18T09:06:49;87070.60;;;18.00
74536;BMP180;63013;51.104;-115.370;2022-12-18T09:09:16;87078.20;;;18.00
74536;BMP180;63013;51.104;-115.370;2022-12-18T09:11:44;87082.20;;;17.96
74536;BMP180;63013;51.104;-115.370;2022-12-18T09:14:11;87077.40;;;17.90
74536;BMP180;63013;51.104;-115.370;2022-12-18T09:16:38;87082.40;;;17.90
74536;BMP180;63013;51.104;-115.370;2022-12-18T09:19:05;87086.20;;;17.90
74536;BMP180;63013;51.104;-115.370;2022-12-18T09:21:34;87089.00;;;17.90
74536;BMP180;63013;51.104;-115.370;2022-12-18T09:24:02;87081.80;;;17.80
74536;BMP180;63013;51.104;-115.370;2022-12-18T09:26:29;87080.00;;;17.80
74536;BMP180;63013;51.104;-115.370;2022-12-18T09:28:56;87085.40;;;17.80
74536;BMP180;63013;51.104;-115.370;2022-12-18T09:31:24;87090.60;;;17.80
74536;BMP180;63013;51.104;-115.370;2022-12-18T09:33:52;87085.80;;;17.80
74536;BMP180;63013;51.104;-115.370;2022-12-18T09:36:21;87086.00;;;17.80
74536;BMP180;63013;51.104;-115.370;2022-12-18T09:38:49;87090.40;;;17.80
74536;BMP180;63013;51.104;-115.370;2022-12-18T09:42:00;87091.40;;;17.80
74536;BMP180;63013;51.104;-115.370;2022-12-18T09:44:42;87087.00;;;17.80
74536;BMP180;63013;51.104;-115.370;2022-12-18T09:47:33;87093.40;;;17.80
74536;BMP180;63013;51.104;-115.370;2022-12-18T09:50:16;87093.60;;;17.80
74536;BMP180;63013;51.104;-115.370;2022-12-18T09:52:54;87097.80;;;17.74
74536;BMP180;63013;51.104;-115.370;2022-12-18T10:00:57;87097.80;;;17.70
74536;BMP180;63013;51.104;-115.370;2022-12-18T10:03:24;87094.80;;;17.70
74536;BMP180;63013;51.104;-115.370;2022-12-18T10:06:06;87088.80;;;17.70
74536;BMP180;63013;51.104;-115.370;2022-12-18T10:08:49;87102.80;;;17.68
74536;BMP180;63013;51.104;-115.370;2022-12-18T10:17:45;87107.20;;;17.70
74536;BMP180;63013;51.104;-115.370;2022-12-18T10:26:17;87118.80;;;17.68
74536;BMP180;63013;51.104;-115.370;2022-12-18T10:28:45;87116.80;;;17.60
74536;BMP180;63013;51.104;-115.370;2022-12-18T10:31:22;87119.60;;;17.60
74536;BMP180;63013;51.104;-115.370;2022-12-18T10:33:50;87126.00;;;17.60
74536;BMP180;63013;51.104;-115.370;2022-12-18T10:36:17;87124.40;;;17.60
74536;BMP180;63013;51.104;-115.370;2022-12-18T10:38:44;87126.60;;;17.60
74536;BMP180;63013;51.104;-115.370;2022-12-18T10:41:24;87129.60;;;17.60
74536;BMP180;63013;51.104;-115.370;2022-12-18T10:46:39;87135.00;;;17.60
74536;BMP180;63013;51.104;-115.370;2022-12-18T10:49:29;87127.20;;;17.60
74536;BMP180;63013;51.104;-115.370;2022-12-18T10:52:23;87123.60;;;17.64
74536;BMP180;63013;51.104;-115.370;2022-12-18T10:54:59;87124.00;;;17.64
74536;BMP180;63013;51.104;-115.370;2022-12-18T10:57:39;87122.00;;;17.60
74536;BMP180;63013;51.104;-115.370;2022-12-18T11:00:29;87117.80;;;17.60
74536;BMP180;63013;51.104;-115.370;2022-12-18T11:02:57;87112.00;;;17.60
74536;BMP180;63013;51.104;-115.370;2022-12-18T11:07:56;87125.20;;;17.60
74536;BMP180;63013;51.104;-115.370;2022-12-18T11:10:37;87131.00;;;17.56
74536;BMP180;63013;51.104;-115.370;2022-12-18T11:13:29;87128.00;;;17.54
74536;BMP180;63013;51.104;-115.370;2022-12-18T11:15:58;87133.60;;;17.58
74536;BMP180;63013;51.104;-115.370;2022-12-18T11:18:33;87121.40;;;17.60
74536;BMP180;63013;51.104;-115.370;2022-12-18T11:21:11;87127.00;;;17.60
74536;BMP180;63013;51.104;-115.370;2022-12-18T11:24:00;87113.80;;;17.60
74536;BMP180;63013;51.104;-115.370;2022-12-18T11:26:35;87117.80;;;17.60
74536;BMP180;63013;51.104;-115.370;2022-12-18T11:29:16;87120.80;;;17.60
74536;BMP180;63013;51.104;-115.370;2022-12-18T11:31:44;87124.00;;;17.60
74536;BMP180;63013;51.104;-115.370;2022-12-18T11:34:33;87122.20;;;17.60
74536;BMP180;63013;51.104;-115.370;2022-12-18T11:37:03;87120.40;;;17.60
74536;BMP180;63013;51.104;-115.370;2022-12-18T11:39:54;87118.00;;;17.58
74536;BMP180;63013;51.104;-115.370;2022-12-18T11:42:46;87113.00;;;17.50
74536;BMP180;63013;51.104;-115.370;2022-12-18T11:45:27;87119.60;;;17.50
74536;BMP180;63013;51.104;-115.370;2022-12-18T11:48:37;87118.40;;;17.50
74536;BMP180;63013;51.104;-115.370;2022-12-18T11:51:16;87117.00;;;17.50
74536;BMP180;63013;51.104;-115.370;2022-12-18T11:53:46;87106.60;;;17.60
74536;BMP180;63013;51.104;-115.370;2022-12-18T11:56:49;87104.00;;;17.60
74536;BMP180;63013;51.104;-115.370;2022-12-18T12:14:29;87109.80;;;17.50
74536;BMP180;63013;51.104;-115.370;2022-12-18T12:17:20;87119.00;;;17.50
74536;BMP180;63013;51.104;-115.370;2022-12-18T12:32:22;87112.20;;;17.54
74536;BMP180;63013;51.104;-115.370;2022-12-18T12:38:43;87116.00;;;17.60
74536;BMP180;63013;51.104;-115.370;2022-12-18T12:41:25;87115.60;;;17.70
74536;BMP180;63013;51.104;-115.370;2022-12-18T12:44:47;87098.80;;;17.70
74536;BMP180;63013;51.104;-115.370;2022-12-18T12:47:38;87101.80;;;17.76
74536;BMP180;63013;51.104;-115.370;2022-12-18T12:50:18;87105.20;;;17.80
74536;BMP180;63013;51.104;-115.370;2022-12-18T12:52:54;87113.20;;;17.80
74536;BMP180;63013;51.104;-115.370;2022-12-18T12:55:29;87117.40;;;17.80
74536;BMP180;63013;51.104;-115.370;2022-12-18T12:58:11;87117.40;;;17.90
74536;BMP180;63013;51.104;-115.370;2022-12-18T13:04:10;87118.00;;;17.94
74536;BMP180;63013;51.104;-115.370;2022-12-18T13:07:10;87113.60;;;18.00
74536;BMP180;63013;51.104;-115.370;2022-12-18T13:12:58;87122.20;;;18.10
74536;BMP180;63013;51.104;-115.370;2022-12-18T13:23:31;87108.60;;;18.20
74536;BMP180;63013;51.104;-115.370;2022-12-18T13:34:25;87123.60;;;18.38
74536;BMP180;63013;51.104;-115.370;2022-12-18T13:36:55;87124.40;;;18.40
74536;BMP180;63013;51.104;-115.370;2022-12-18T13:39:32;87126.20;;;18.40
74536;BMP180;63013;51.104;-115.370;2022-12-18T13:44:39;87126.00;;;18.50
74536;BMP180;63013;51.104;-115.370;2022-12-18T13:47:34;87126.40;;;18.50
74536;BMP180;63013;51.104;-115.370;2022-12-18T13:50:26;87126.60;;;18.50
74536;BMP180;63013;51.104;-115.370;2022-12-18T13:52:53;87128.20;;;18.60
74536;BMP180;63013;51.104;-115.370;2022-12-18T13:55:23;87129.40;;;18.60
74536;BMP180;63013;51.104;-115.370;2022-12-18T13:58:05;87130.40;;;18.64
74536;BMP180;63013;51.104;-115.370;2022-12-18T14:00:32;87129.80;;;18.70
74536;BMP180;63013;51.104;-115.370;2022-12-18T14:03:00;87121.60;;;18.70
74536;BMP180;63013;51.104;-115.370;2022-12-18T14:08:11;87130.80;;;18.80
74536;BMP180;63013;51.104;-115.370;2022-12-18T14:10:46;87129.60;;;18.80
74536;BMP180;63013;51.104;-115.370;2022-12-18T14:13:37;87132.60;;;18.86
74536;BMP180;63013;51.104;-115.370;2022-12-18T14:16:07;87139.00;;;18.90
74536;BMP180;63013;51.104;-115.370;2022-12-18T14:18:55;87137.00;;;18.90
74536;BMP180;63013;51.104;-115.370;2022-12-18T14:21:28;87133.80;;;19.00
74536;BMP180;63013;51.104;-115.370;2022-12-18T14:24:19;87134.40;;;19.10
74536;BMP180;63013;51.104;-115.370;2022-12-18T14:26:49;87136.20;;;19.10
74536;BMP180;63013;51.104;-115.370;2022-12-18T14:29:30;87135.80;;;19.20
74536;BMP180;63013;51.104;-115.370;2022-12-18T14:32:12;87143.00;;;19.24
74536;BMP180;63013;51.104;-115.370;2022-12-18T14:34:40;87150.60;;;19.30
74536;BMP180;63013;51.104;-115.370;2022-12-18T14:37:12;87146.20;;;19.40
74536;BMP180;63013;51.104;-115.370;2022-12-18T14:39:40;87144.00;;;19.46
74536;BMP180;63013;51.104;-115.370;2022-12-18T14:42:11;87137.20;;;19.50
74536;BMP180;63013;51.104;-115.370;2022-12-18T14:44:39;87141.00;;;19.50
74536;BMP180;63013;51.104;-115.370;2022-12-18T14:47:14;87144.00;;;19.56
74536;BMP180;63013;51.104;-115.370;2022-12-18T14:49:42;87145.40;;;19.60
74536;BMP180;63013;51.104;-115.370;2022-12-18T14:52:31;87144.40;;;19.60
74536;BMP180;63013;51.104;-115.370;2022-12-18T14:54:59;87148.40;;;19.64
74536;BMP180;63013;51.104;-115.370;2022-12-18T14:57:36;87148.20;;;19.70
74536;BMP180;63013;51.104;-115.370;2022-12-18T15:00:20;87147.40;;;19.70
74536;BMP180;63013;51.104;-115.370;2022-12-18T15:02:54;87147.80;;;19.80
74536;BMP180;63013;51.104;-115.370;2022-12-18T15:05:28;87142.20;;;19.88
74536;BMP180;63013;51.104;-115.370;2022-12-18T15:07:59;87140.00;;;19.90
74536;BMP180;63013;51.104;-115.370;2022-12-18T15:10:30;87148.20;;;19.94
74536;BMP180;63013;51.104;-115.370;2022-12-18T15:18:12;87147.00;;;20.10
74536;BMP180;63013;51.104;-115.370;2022-12-18T15:20:46;87139.20;;;20.10
74536;BMP180;63013;51.104;-115.370;2022-12-18T15:23:48;87135.40;;;20.20
74536;BMP180;63013;51.104;-115.370;2022-12-18T15:26:20;87143.20;;;20.20
74536;BMP180;63013;51.104;-115.370;2022-12-18T15:28:52;87147.00;;;20.22
74536;BMP180;63013;51.104;-115.370;2022-12-18T15:31:32;87151.00;;;20.30
74536;BMP180;63013;51.104;-115.370;2022-12-18T15:34:22;87153.60;;;20.30
74536;BMP180;63013;51.104;-115.370;2022-12-18T15:36:51;87157.80;;;20.40
74536;BMP180;63013;51.104;-115.370;2022-12-18T15:39:18;87159.80;;;20.40
74536;BMP180;63013;51.104;-115.370;2022-12-18T15:41:46;87160.20;;;20.46
74536;BMP180;63013;51.104;-115.370;2022-12-18T15:44:32;87158.20;;;20.50
74536;BMP180;63013;51.104;-115.370;2022-12-18T15:46:59;87159.80;;;20.60
74536;BMP180;63013;51.104;-115.370;2022-12-18T15:49:26;87165.00;;;20.70
74536;BMP180;63013;51.104;-115.370;2022-12-18T15:51:58;87158.40;;;20.76
74536;BMP180;63013;51.104;-115.370;2022-12-18T15:54:26;87161.60;;;20.80